EST,Max TemperatureF,Mean TemperatureF,Min TemperatureF,Max Dew PointF,MeanDew PointF,Min DewpointF,Max Humidity, Mean Humidity, Min Humidity, Max Sea Level PressureIn, Mean Sea Level PressureIn, Min Sea Level PressureIn, Max VisibilityMiles, Mean VisibilityMiles, Min VisibilityMiles, Max Wind SpeedMPH, Mean Wind SpeedMPH, Max Gust SpeedMPH,PrecipitationIn, CloudCover, Events, WindDirDegrees
2012-11-1,54,48,43,39,37,35,80,68,52,29.57,29.54,29.51,10,10,10,13,6,,0.00,7,,202
2012-11-2,54,48,43,39,34,29,82,63,41,29.68,29.60,29.56,10,10,10,15,6,23,0.00,7,,284
2012-11-3,51,46,39,32,30,28,67,57,43,29.87,29.77,29.67,10,10,10,21,11,29,0.00,5,,317
2012-11-4,51,42,34,29,28,27,79,58,43,29.97,29.93,29.88,10,10,10,13,7,17,0.00,2,,314
2012-11-5,41,32,23,26,20,16,85,56,41,30.18,30.05,29.97,10,10,10,17,9,22,0.00,5,,342
2012-11-6,42,30,19,21,16,10,88,62,27,30.26,30.21,30.18,10,10,10,9,2,,0.00,0,,9
2012-11-7,36,31,26,25,20,15,82,62,43,30.17,29.96,29.80,10,6,1,28,14,46,0.00,7,Rain-Snow,13
2012-11-8,45,39,33,31,27,22,75,64,53,29.85,29.77,29.70,10,9,3,23,18,32,0.01,8,Rain-Snow,351
2012-11-9,53,44,35,34,23,16,68,47,23,30.14,30.01,29.86,10,10,10,22,11,26,0.00,1,,318
2012-11-10,57,47,37,36,32,27,83,61,31,30.45,30.30,30.14,10,10,10,12,3,,0.00,2,,324
2012-11-11,64,52,39,45,40,33,93,68,43,30.50,30.45,30.39,10,10,4,14,4,20,0.00,3,,176
2012-11-12,64,52,39,57,47,37,100,84,63,30.46,30.38,30.19,10,6,0,20,6,30,0.00,5,Fog-Rain,184
2012-11-13,62,50,37,57,39,24,84,71,53,30.45,30.27,30.10,10,9,3,20,11,29,0.26,7,Rain,325
2012-11-14,46,36,27,26,23,17,89,62,33,30.56,30.51,30.46,10,10,10,16,5,22,0.00,1,,9
2012-11-15,44,35,26,25,23,20,85,66,42,30.50,30.41,30.33,10,10,10,9,4,,0.00,0,,11
2012-11-16,44,36,28,27,23,21,85,67,40,30.47,30.36,30.32,10,10,10,7,2,,0.00,0,,15
2012-11-17,50,38,26,28,25,20,85,68,36,30.68,30.60,30.47,10,10,7,10,3,,0.00,0,,18
2012-11-18,48,36,24,28,24,21,88,72,41,30.74,30.68,30.64,10,10,7,8,3,,0.00,0,,353
2012-11-19,48,36,24,31,26,21,88,74,48,30.63,30.47,30.29,10,10,8,10,4,,0.00,0,,351
2012-11-20,50,36,23,26,23,20,88,65,33,30.27,30.20,30.15,10,10,10,10,2,,0.00,0,,13
2012-11-21,52,40,28,26,25,23,82,63,32,30.29,30.24,30.19,10,10,10,9,3,,0.00,0,,1
2012-11-22,54,40,27,35,28,22,92,72,45,30.30,30.23,30.14,10,10,6,5,2,,0.00,0,,328
2012-11-23,57,40,24,42,32,21,93,77,46,30.12,29.92,29.65,10,8,2,14,3,,0.00,3,Rain,174
2012-11-24,46,39,32,43,23,16,90,52,35,29.74,29.66,29.61,10,10,5,23,13,32,0.00,6,Snow,298
2012-11-25,37,32,28,22,18,16,66,55,47,29.90,29.83,29.75,10,10,9,23,12,31,0.00,5,Snow,264
2012-11-26,44,36,25,24,22,20,85,62,40,30.27,30.08,29.89,10,10,10,20,6,26,0.00,4,,239
2012-11-27,35,31,27,32,29,22,92,87,79,30.32,30.28,30.23,10,4,1,5,1,,0.09,8,Rain-Snow,7
2012-11-28,39,32,24,31,25,19,92,73,43,30.23,30.20,30.14,10,9,4,10,5,,0.00,5,,337
2012-11-29,44,36,28,24,21,14,75,57,30,30.30,30.24,30.20,10,10,10,15,7,,0.00,2,,203
2012-11-30,34,31,28,25,12,-2,78,48,25,30.55,30.44,30.26,10,10,10,13,7,,0.00,7,,8